Alder, Washington
Current Conditions -  °F | °C
As of 9:03 PM on Monday 20 Oct 2014 (Local Time) from KGRF Reporting Station
Light Rain Light Rain  
Wind Chill: 55°   Ceiling: 4800
Heat Index: 55°   Visibility: 9mi
Dew Point: 54°   Wind: 8mph
Humidity: 94%   Direction: 170°S
Pressure: 29.79"   Gusts: NA
Location:  46.8687°N, 122.208°W
Report Text: KGRF 210403Z AUTO 17007KT 9SM -RA FEW034 BKN048 OVC055 13/12 A2979 RMK AO2
Loading
Personal Weather Stations






























Interactive Weather Map
Tropical Storm Tracking
New forecast layout! Learn more

10-Day Weather Forecast

Advertisements
Track Severe Weather on mobile